KBKW/BKW METAR and TAF weather

Enter ICAO airport designator
Station Type Date Time Source
KBKW METAR 2019/06/24 22:51 UTC NOAA

KBKW 242251Z AUTO 19007KT 10SM BKN095 BKN120 27/18 A2985 RMK AO2 LTG DSNT E-SW SLP071 T02720178


Station Type Date Time Source
KBKW Decoded METAR 2019/06/24 22:51 UTC NOAA

RALEIGH COUNTY MEM AIRPORT , WV, United States (KBKW) 37-48N 081-07W 764M
Jun 24, 2019 - 06:51 PM EDT / 2019.06.24 2251 UTC
Wind: from the S (190 degrees) at 8 MPH (7 KT):0
Visibility: 10 mile(s):0
Sky conditions: mostly cloudy
Weather: Lightning observed
Temperature: 81.0 F (27.2 C)
Dew Point: 64.0 F (17.8 C)
Relative Humidity: 56%
Pressure (altimeter): 29.85 in. Hg (1010 hPa)
ob: KBKW 242251Z AUTO 19007KT 10SM BKN095 BKN120 27/18 A2985 RMK AO2 LTG DSNT E-SW SLP071 T02720178
cycle: 23

Station Type Date Time Source
KBKW TAF 2019/06/24 22:12 UTC NOAA

TAF
AMD KBKW 242210Z 2422/2518 21009KT P6SM VCTS SCT040CB BKN080
TEMPO 2422/2502 1SM +TSRA BKN025CB
FM250200 24009G16KT P6SM BKN080
FM250600 26008G14KT P6SM BKN017
FM251500 29010KT P6SM BKN040
FM251700 29012G20KT P6SM SCT100

Example: see airport list